createdAt,value
2022-10-15T00:00:24.408Z,19.8
2022-10-15T00:02:42.539Z,19.4
2022-10-15T00:04:59.653Z,19.3
2022-10-15T00:07:17.353Z,19.1
2022-10-15T00:09:34.955Z,19.3
2022-10-15T00:14:10.376Z,19.1
2022-10-15T00:16:27.896Z,19.1
2022-10-15T00:18:45.551Z,19.5
2022-10-15T00:21:03.351Z,19.3
2022-10-15T00:23:20.691Z,19.1
2022-10-15T00:25:38.114Z,19.3
2022-10-15T00:27:55.556Z,19.3
2022-10-15T00:30:13.343Z,18.8
2022-10-15T00:32:31.449Z,19.1
2022-10-15T00:34:48.472Z,18.8
2022-10-15T00:37:06.123Z,18.8
2022-10-15T00:39:23.794Z,18.8
2022-10-15T00:41:41.502Z,18.8
2022-10-15T00:43:58.842Z,19
2022-10-15T00:46:16.441Z,18.8
2022-10-15T00:48:33.771Z,19.7
2022-10-15T00:50:51.381Z,19.8
2022-10-15T00:53:09.216Z,19.1
2022-10-15T00:55:26.393Z,19
2022-10-15T00:57:44.109Z,18.6
2022-10-15T01:00:01.759Z,18.8
2022-10-15T01:02:19.507Z,18.9
2022-10-15T01:04:37.224Z,18.9
2022-10-15T01:06:54.825Z,19.1
2022-10-15T01:09:12.105Z,20.6
2022-10-15T01:11:29.630Z,19.4
2022-10-15T01:13:47.183Z,19.1
2022-10-15T01:16:05.009Z,18.9
2022-10-15T01:18:22.706Z,18.6
2022-10-15T01:20:40.008Z,18.8
2022-10-15T01:22:57.695Z,19.2
2022-10-15T01:25:15.340Z,19
2022-10-15T01:27:33.018Z,18.8
2022-10-15T01:29:50.503Z,18.6
2022-10-15T01:34:44.137Z,19
2022-10-15T01:37:01.725Z,18.4
2022-10-15T01:39:19.306Z,20.1
2022-10-15T01:41:36.650Z,19.1
2022-10-15T01:43:54.154Z,19.4
2022-10-15T01:46:11.608Z,19.3
2022-10-15T01:48:29.393Z,18.9
2022-10-15T01:50:46.832Z,18.8
2022-10-15T01:53:05.872Z,19.3
2022-10-15T01:57:39.925Z,19
2022-10-15T02:02:14.816Z,18.9
2022-10-15T02:04:32.574Z,18.5
2022-10-15T02:06:50.233Z,18.8
2022-10-15T02:09:07.704Z,19.1
2022-10-15T02:11:25.191Z,19.1
2022-10-15T02:13:42.748Z,19.1
2022-10-15T02:16:00.195Z,19.2
2022-10-15T02:18:17.755Z,18.6
2022-10-15T02:20:36.336Z,19.6
2022-10-15T02:22:52.779Z,19.3
2022-10-15T02:25:10.412Z,18.9
2022-10-15T02:27:27.933Z,18.6
2022-10-15T02:29:45.571Z,18.8
2022-10-15T02:34:21.142Z,19.4
2022-10-15T02:38:56.254Z,19.2
2022-10-15T02:41:13.688Z,18.9
2022-10-15T02:45:48.904Z,18.2
2022-10-15T02:48:06.398Z,19
2022-10-15T02:50:23.775Z,19.2
2022-10-15T02:52:41.738Z,19
2022-10-15T02:54:58.876Z,18.9
2022-10-15T02:57:16.555Z,18.6
2022-10-15T02:59:34.217Z,19.2
2022-10-15T03:01:51.675Z,18.6
2022-10-15T03:04:09.189Z,19.1
2022-10-15T03:06:26.654Z,19.3
2022-10-15T03:08:44.718Z,18.9
2022-10-15T03:11:01.734Z,19.3
2022-10-15T03:13:19.961Z,18.4
2022-10-15T03:15:36.644Z,19.4
2022-10-15T03:17:54.148Z,18.6
2022-10-15T03:20:11.590Z,18.4
2022-10-15T03:22:29.084Z,18.4
2022-10-15T03:24:46.928Z,19.9
2022-10-15T03:27:04.789Z,19.1
2022-10-15T03:29:21.707Z,19.4
2022-10-15T03:31:39.220Z,18.9
2022-10-15T03:33:56.947Z,18.5
2022-10-15T03:36:14.684Z,18.8
2022-10-15T03:38:32.222Z,18.8
2022-10-15T03:40:49.890Z,18.6
2022-10-15T03:43:07.381Z,19.1
2022-10-15T03:45:25.575Z,19.8
2022-10-15T03:50:00.117Z,18.6
2022-10-15T03:52:17.899Z,18.5
2022-10-15T03:54:35.403Z,18.5
2022-10-15T03:56:53.030Z,19
2022-10-15T03:59:10.618Z,19.1
2022-10-15T04:01:28.511Z,18.9
2022-10-15T04:03:45.932Z,18.8
2022-10-15T04:06:03.700Z,18.6
2022-10-15T04:12:56.408Z,18.9
2022-10-15T04:17:31.857Z,18
2022-10-15T04:22:07.296Z,19.4
2022-10-15T04:24:24.909Z,18.6
2022-10-15T04:26:42.384Z,19.3
2022-10-15T04:28:59.940Z,18.8
2022-10-15T04:31:18.584Z,19
2022-10-15T04:33:35.865Z,18.9
2022-10-15T04:35:53.450Z,19.3
2022-10-15T04:38:11.127Z,18.9
2022-10-15T04:40:28.742Z,18.8
2022-10-15T04:42:46.484Z,18.5
2022-10-15T04:45:04.011Z,18.6
2022-10-15T04:47:22.177Z,18.5
2022-10-15T04:49:39.413Z,19.8
2022-10-15T04:54:14.754Z,18.6
2022-10-15T04:56:32.455Z,18.8
2022-10-15T04:58:50.013Z,18.9
2022-10-15T05:01:07.402Z,18.5
2022-10-15T05:03:25.156Z,18.5
2022-10-15T05:05:42.790Z,18.8
2022-10-15T05:08:00.604Z,18.4
2022-10-15T05:10:18.130Z,18.3
2022-10-15T05:12:35.986Z,18.4
2022-10-15T05:14:53.694Z,18.4
2022-10-15T05:17:11.474Z,18.2
2022-10-15T05:19:28.734Z,18.9
2022-10-15T05:21:46.413Z,18.9
2022-10-15T05:24:04.133Z,18.9
2022-10-15T05:26:21.457Z,18.4
2022-10-15T05:28:39.361Z,18
2022-10-15T05:30:56.750Z,19
2022-10-15T05:33:14.690Z,19.1
2022-10-15T05:35:32.847Z,18.4
2022-10-15T05:37:49.919Z,18.4
2022-10-15T05:40:07.448Z,19.3
2022-10-15T05:42:25.105Z,18.5
2022-10-15T05:47:00.222Z,18.4
2022-10-15T05:49:18.190Z,18.8
2022-10-15T05:51:35.736Z,18.3
2022-10-15T05:53:53.803Z,18.9
2022-10-15T05:56:11.273Z,18
2022-10-15T05:58:30.854Z,18.4
2022-10-15T06:00:47.022Z,18.3
2022-10-15T06:03:04.806Z,18.6
2022-10-15T06:05:22.182Z,19.5
2022-10-15T06:07:39.761Z,19.5
2022-10-15T06:09:57.846Z,18.3
2022-10-15T06:14:33.025Z,19.1
2022-10-15T06:16:50.702Z,18.6
2022-10-15T06:21:26.040Z,18.9
2022-10-15T06:23:43.919Z,18.8
2022-10-15T06:26:01.484Z,19.1
2022-10-15T06:28:19.257Z,18.8
2022-10-15T06:30:36.785Z,19.1
2022-10-15T06:32:54.616Z,19.2
2022-10-15T06:35:12.355Z,18.8
2022-10-15T06:37:29.923Z,18.6
2022-10-15T06:39:47.807Z,18.5
2022-10-15T06:42:05.917Z,18.8
2022-10-15T06:44:23.590Z,18.8
2022-10-15T06:48:59.492Z,19.1
2022-10-15T06:51:16.920Z,18.8
2022-10-15T06:53:34.492Z,19.1
2022-10-15T06:55:52.767Z,19.4
2022-10-15T06:58:10.316Z,19.3
2022-10-15T07:00:28.487Z,18.6
2022-10-15T07:02:46.134Z,19.2
2022-10-15T07:05:03.878Z,19.3
2022-10-15T07:07:21.593Z,19.3
2022-10-15T07:09:39.156Z,20
2022-10-15T07:11:56.893Z,19.4
2022-10-15T07:14:14.662Z,19.9
2022-10-15T07:16:32.377Z,19.1
2022-10-15T07:18:49.808Z,19.9
2022-10-15T07:21:07.484Z,20
2022-10-15T07:23:27.012Z,19.9
2022-10-15T07:25:43.119Z,19.4
2022-10-15T07:28:00.799Z,20.3
2022-10-15T07:30:18.624Z,20
2022-10-15T07:32:36.194Z,20.1
2022-10-15T07:34:54.303Z,20.2
2022-10-15T07:37:11.763Z,20.3
2022-10-15T07:39:29.437Z,20.4
2022-10-15T07:41:47.110Z,20.8
2022-10-15T07:44:04.591Z,20.6
2022-10-15T07:46:22.890Z,20.4
2022-10-15T07:48:40.425Z,21
2022-10-15T07:50:58.333Z,20.4
2022-10-15T07:53:17.048Z,20.9
2022-10-15T07:55:33.799Z,20.8
2022-10-15T07:57:51.402Z,20.6
2022-10-15T08:00:09.261Z,20.9
2022-10-15T08:02:26.993Z,21.1
2022-10-15T08:04:44.408Z,20.9
2022-10-15T08:07:02.787Z,21
2022-10-15T08:09:19.745Z,21.1
2022-10-15T08:11:37.603Z,21.2
2022-10-15T08:13:54.907Z,21.4
2022-10-15T08:16:13.738Z,21.9
2022-10-15T08:18:30.707Z,21.4
2022-10-15T08:20:48.365Z,20.6
2022-10-15T08:23:05.423Z,20.9
2022-10-15T08:25:22.672Z,20.9
2022-10-15T08:27:40.253Z,20.9
2022-10-15T08:32:15.121Z,21.1
2022-10-15T08:39:07.121Z,21.2
2022-10-15T08:41:24.468Z,21.3
2022-10-15T08:43:41.732Z,21.4
2022-10-15T08:45:59.159Z,22.4
2022-10-15T08:48:16.215Z,22.8
2022-10-15T08:50:33.464Z,22.5
2022-10-15T08:52:50.940Z,22.5
2022-10-15T08:55:08.052Z,22.1
2022-10-15T08:57:25.974Z,22.6
2022-10-15T08:59:42.970Z,24.4
2022-10-15T09:02:00.637Z,22.1
2022-10-15T09:04:18.108Z,22.9
2022-10-15T09:06:35.950Z,22.4
2022-10-15T09:08:53.139Z,22.4
2022-10-15T09:11:10.720Z,22.4
2022-10-15T09:13:28.299Z,22.8
2022-10-15T09:15:45.685Z,22.4
2022-10-15T09:18:03.855Z,22.6
2022-10-15T09:20:21.492Z,22.6
2022-10-15T09:22:39.224Z,22.5
2022-10-15T09:24:56.507Z,22.3
2022-10-15T09:27:14.316Z,22.6
2022-10-15T09:29:31.776Z,22.7
2022-10-15T09:31:49.488Z,22.3
2022-10-15T09:34:06.991Z,22.9
2022-10-15T09:36:24.434Z,22.6
2022-10-15T09:38:42.181Z,22.8
2022-10-15T09:40:59.786Z,22.8
2022-10-15T09:43:17.464Z,22.8
2022-10-15T09:45:34.999Z,22.7
2022-10-15T09:47:52.796Z,22.8
2022-10-15T09:50:10.226Z,22.9
2022-10-15T09:52:28.240Z,22.8
2022-10-15T09:54:45.601Z,22.8
2022-10-15T09:57:03.123Z,22.8
2022-10-15T09:59:20.893Z,22.7
2022-10-15T10:01:38.499Z,22.7
2022-10-15T10:03:56.105Z,22.7
2022-10-15T10:06:13.703Z,22.6
2022-10-15T10:08:31.494Z,22.5
2022-10-15T10:10:49.192Z,22.6
2022-10-15T10:13:06.891Z,22.6
2022-10-15T10:15:24.476Z,22.6
2022-10-15T10:17:42.204Z,22.5
2022-10-15T10:19:59.655Z,22.5
2022-10-15T10:22:17.294Z,22.3
2022-10-15T10:24:35.089Z,22.5
2022-10-15T10:26:52.659Z,22.4
2022-10-15T10:29:15.934Z,22.5
2022-10-15T10:31:33.892Z,22.3
2022-10-15T10:33:51.446Z,22.3
2022-10-15T10:38:26.916Z,22.3
2022-10-15T10:40:44.144Z,22.3
2022-10-15T10:43:01.748Z,22.4
2022-10-15T10:45:19.362Z,22.3
2022-10-15T10:47:36.957Z,22.3
2022-10-15T10:49:54.402Z,22.3
2022-10-15T10:52:11.950Z,22.1
2022-10-15T10:54:29.648Z,22.2
2022-10-15T10:56:47.178Z,22.2
2022-10-15T10:59:05.266Z,22.1
2022-10-15T11:01:22.254Z,22.1
2022-10-15T11:03:39.800Z,22.2
2022-10-15T11:05:57.429Z,22.1
2022-10-15T11:08:14.998Z,22.1
2022-10-15T11:10:32.464Z,22.1
2022-10-15T11:12:50.097Z,22
2022-10-15T11:15:07.656Z,21.9
2022-10-15T11:17:25.536Z,21.9
2022-10-15T11:20:20.909Z,21.9
2022-10-15T11:22:37.052Z,21.9
2022-10-15T11:25:05.844Z,21.9
2022-10-15T11:27:12.881Z,21.8
2022-10-15T11:29:30.628Z,21.7
2022-10-15T11:31:55.003Z,21.8
2022-10-15T11:34:20.532Z,21.8
2022-10-15T11:36:51.730Z,21.8
2022-10-15T11:39:09.275Z,21.8
2022-10-15T11:41:26.791Z,21.8
2022-10-15T11:43:44.311Z,21.6
2022-10-15T11:46:01.908Z,21.8
2022-10-15T11:48:19.546Z,21.8
2022-10-15T11:50:37.039Z,21.7
2022-10-15T11:52:54.588Z,21.7
2022-10-15T11:55:12.187Z,21.6
2022-10-15T11:57:29.685Z,21.6
2022-10-15T11:59:47.298Z,21.6
2022-10-15T12:02:04.821Z,21.6
2022-10-15T12:04:22.531Z,21.6
2022-10-15T12:06:40.506Z,21.8
2022-10-15T12:08:57.703Z,21.6
2022-10-15T12:11:15.209Z,21.6
2022-10-15T12:13:32.621Z,21.4
2022-10-15T12:15:50.221Z,21.6
2022-10-15T12:18:07.786Z,21.4
2022-10-15T12:20:25.538Z,21.5
2022-10-15T12:22:42.867Z,21.6
2022-10-15T12:25:00.455Z,21.6
2022-10-15T12:27:18.025Z,21.6
2022-10-15T12:29:35.898Z,21.5
2022-10-15T12:31:53.085Z,21.7
2022-10-15T12:34:10.718Z,21.5
2022-10-15T12:36:28.512Z,21.4
2022-10-15T12:38:45.921Z,21.4
2022-10-15T12:41:11.246Z,21.4
2022-10-15T12:43:28.839Z,21.4
2022-10-15T12:45:46.447Z,21.4
2022-10-15T12:48:04.006Z,21.4
2022-10-15T12:50:21.528Z,21.3
2022-10-15T12:52:39.137Z,21.4
2022-10-15T12:54:57.808Z,21.4
2022-10-15T12:57:14.287Z,21.3
2022-10-15T12:59:31.815Z,21.2
2022-10-15T13:01:49.232Z,21.3
2022-10-15T13:04:06.600Z,21.9
2022-10-15T13:06:24.099Z,21.8
2022-10-15T13:08:41.295Z,21.9
2022-10-15T13:10:58.761Z,21.8
2022-10-15T13:13:16.118Z,21.1
2022-10-15T13:15:33.484Z,21.8
2022-10-15T13:17:51.010Z,22.2
2022-10-15T13:20:08.469Z,21.6
2022-10-15T13:22:26.238Z,21.1
2022-10-15T13:24:47.602Z,20.6
2022-10-15T13:27:05.704Z,21.4
2022-10-15T13:29:22.462Z,21.9
2022-10-15T13:31:39.775Z,20.8
2022-10-15T13:33:57.797Z,22
2022-10-15T13:36:14.518Z,21.5
2022-10-15T13:38:31.938Z,20.9
2022-10-15T13:40:49.297Z,21.9
2022-10-15T13:43:06.810Z,21.9
2022-10-15T13:45:24.246Z,21.3
2022-10-15T13:47:41.839Z,20.9
2022-10-15T13:49:59.898Z,20.9
2022-10-15T13:52:17.111Z,21.1
2022-10-15T13:54:34.464Z,20.9
2022-10-15T13:56:51.733Z,20.9
2022-10-15T13:59:09.226Z,21.5
2022-10-15T14:01:26.681Z,21
2022-10-15T14:03:44.081Z,20.2
2022-10-15T14:06:01.411Z,20.2
2022-10-15T14:08:18.756Z,20.9
2022-10-15T14:10:36.151Z,22.7
2022-10-15T14:12:53.491Z,21
2022-10-15T14:15:10.956Z,20.8
2022-10-15T14:17:28.489Z,22.1
2022-10-15T14:19:47.186Z,20.6
2022-10-15T14:22:16.396Z,21.6
2022-10-15T14:24:33.937Z,20.5
2022-10-15T14:26:51.554Z,20.9
2022-10-15T14:29:09.067Z,20.8
2022-10-15T14:31:26.201Z,20.6
2022-10-15T14:33:43.614Z,21.8
2022-10-15T14:36:00.814Z,21.5
2022-10-15T14:38:18.237Z,21.9
2022-10-15T14:40:35.673Z,22.2
2022-10-15T14:42:53.219Z,20.4
2022-10-15T14:45:10.597Z,20.6
2022-10-15T14:47:28.172Z,21.3
2022-10-15T14:49:45.504Z,21.2
2022-10-15T14:52:02.868Z,21.2
2022-10-15T14:54:20.270Z,21.3
2022-10-15T14:56:37.658Z,20.6
2022-10-15T14:58:54.970Z,19.9
2022-10-15T15:01:12.379Z,20
2022-10-15T15:03:29.977Z,19.9
2022-10-15T15:05:47.130Z,19.8
2022-10-15T15:08:06.484Z,20.1
2022-10-15T15:10:21.638Z,19.9
2022-10-15T15:12:39.025Z,19.8
2022-10-15T15:14:56.355Z,19.8
2022-10-15T15:17:13.636Z,19.9
2022-10-15T15:19:30.975Z,19.8
2022-10-15T15:21:48.518Z,19.6
2022-10-15T15:24:05.758Z,19.6
2022-10-15T15:26:23.095Z,19.6
2022-10-15T15:28:40.572Z,19.8
2022-10-15T15:30:57.697Z,19.6
2022-10-15T15:33:15.097Z,19.6
2022-10-15T15:35:32.515Z,19.5
2022-10-15T15:37:49.950Z,19.7
2022-10-15T15:40:07.115Z,19.6
2022-10-15T15:42:24.775Z,19.7
2022-10-15T15:44:41.747Z,19.5
2022-10-15T15:46:59.167Z,19.8
2022-10-15T15:49:17.119Z,19.5
2022-10-15T15:51:34.167Z,19.6
2022-10-15T15:53:51.871Z,20
2022-10-15T15:56:09.250Z,20.3
2022-10-15T15:58:26.512Z,21.1
2022-10-15T16:00:44.302Z,20.5
2022-10-15T16:03:01.923Z,20.3
2022-10-15T16:05:19.380Z,20.1
2022-10-15T16:07:37.139Z,20.9
2022-10-15T16:09:54.734Z,20
2022-10-15T16:14:30.055Z,20.2
2022-10-15T16:16:47.732Z,20.3
2022-10-15T16:19:05.465Z,20.3
2022-10-15T16:21:23.360Z,20.1
2022-10-15T16:23:40.977Z,19.7
2022-10-15T16:25:58.998Z,20
2022-10-15T16:28:16.620Z,19.8
2022-10-15T16:30:34.542Z,19.7
2022-10-15T16:32:52.178Z,19.9
2022-10-15T16:35:10.378Z,19.6
2022-10-15T16:37:28.032Z,19.9
2022-10-15T16:39:45.450Z,19.8
2022-10-15T16:42:03.525Z,19.6
2022-10-15T16:44:20.856Z,19.7
2022-10-15T16:46:38.781Z,19.6
2022-10-15T16:48:56.455Z,19.8
2022-10-15T16:51:14.265Z,19.8
2022-10-15T16:53:31.806Z,19.9
2022-10-15T16:55:49.819Z,19.8
2022-10-15T16:58:07.464Z,19.9
2022-10-15T17:00:25.997Z,19.7
2022-10-15T17:02:43.568Z,19.6
2022-10-15T17:05:01.232Z,19.6
2022-10-15T17:07:18.935Z,19.8
2022-10-15T17:09:36.674Z,19.5
2022-10-15T17:11:54.412Z,19.3
2022-10-15T17:14:12.161Z,19.3
2022-10-15T17:16:29.952Z,19.6
2022-10-15T17:18:47.698Z,19.6
2022-10-15T17:21:05.740Z,19.5
2022-10-15T17:23:23.212Z,19.6
2022-10-15T17:25:40.861Z,19.8
2022-10-15T17:27:58.454Z,20.3
2022-10-15T17:30:16.137Z,20.6
2022-10-15T17:32:34.023Z,19.9
2022-10-15T17:34:51.527Z,19.9
2022-10-15T17:37:09.779Z,19.5
2022-10-15T17:39:26.970Z,20.1
2022-10-15T17:41:44.885Z,19.7
2022-10-15T17:44:02.259Z,19.9
2022-10-15T17:46:20.131Z,19.5
2022-10-15T17:48:37.759Z,20
2022-10-15T17:50:55.287Z,19.8
2022-10-15T17:53:13.256Z,19.6
2022-10-15T17:55:30.928Z,19.6
2022-10-15T17:57:48.858Z,19.8
2022-10-15T18:00:06.472Z,20
2022-10-15T18:02:32.711Z,19.3
2022-10-15T18:04:50.026Z,19.9
2022-10-15T18:07:08.260Z,20.8
2022-10-15T18:09:25.420Z,19.6
2022-10-15T18:11:43.061Z,19.3
2022-10-15T18:14:00.647Z,19.6
2022-10-15T18:16:18.323Z,19.2
2022-10-15T18:18:35.684Z,19.6
2022-10-15T18:20:53.290Z,19.9
2022-10-15T18:23:11.028Z,19.6
2022-10-15T18:25:28.482Z,19.6
2022-10-15T18:27:46.272Z,19.6
2022-10-15T18:30:03.951Z,19.8
2022-10-15T18:32:21.903Z,19.2
2022-10-15T18:34:38.996Z,19.3
2022-10-15T18:36:56.770Z,19.4
2022-10-15T18:39:14.462Z,19.3
2022-10-15T18:41:32.147Z,19.5
2022-10-15T18:43:49.831Z,19.2
2022-10-15T18:46:07.464Z,20.2
2022-10-15T18:48:27.260Z,19.3
2022-10-15T18:50:42.841Z,19.5
2022-10-15T18:53:01.008Z,19.6
2022-10-15T18:55:18.123Z,19.3
2022-10-15T18:57:35.812Z,20.6
2022-10-15T19:02:11.019Z,19.6
2022-10-15T19:04:28.328Z,19.9
2022-10-15T19:06:46.081Z,19.6
2022-10-15T19:09:03.789Z,19.1
2022-10-15T19:11:21.889Z,19.5
2022-10-15T19:13:39.167Z,19.7
2022-10-15T19:15:56.487Z,19.4
2022-10-15T19:18:14.280Z,20.8
2022-10-15T19:20:31.800Z,19.5
2022-10-15T19:22:49.545Z,19.4
2022-10-15T19:25:07.128Z,19.5
2022-10-15T19:27:25.694Z,19.7
2022-10-15T19:29:42.351Z,20
2022-10-15T19:32:00.133Z,19.4
2022-10-15T19:34:17.773Z,19.6
2022-10-15T19:36:35.273Z,19.4
2022-10-15T19:38:53.184Z,19.6
2022-10-15T19:41:10.647Z,19.2
2022-10-15T19:43:28.094Z,19.3
2022-10-15T19:45:45.746Z,19.9
2022-10-15T19:48:03.504Z,18.6
2022-10-15T19:50:21.181Z,19.2
2022-10-15T19:52:38.885Z,19.8
2022-10-15T19:54:56.669Z,19.4
2022-10-15T19:57:14.253Z,19.9
2022-10-15T19:59:31.825Z,19.2
2022-10-15T20:01:49.307Z,19.5
2022-10-15T20:04:07.432Z,20.3
2022-10-15T20:06:24.644Z,18.8
2022-10-15T20:08:42.239Z,19.8
2022-10-15T20:11:00.026Z,19.1
2022-10-15T20:13:17.731Z,19.3
2022-10-15T20:15:35.595Z,19.3
2022-10-15T20:17:53.315Z,19
2022-10-15T20:20:11.310Z,19.4
2022-10-15T20:22:29.058Z,19.1
2022-10-15T20:24:47.058Z,18.9
2022-10-15T20:27:04.515Z,19.6
2022-10-15T20:29:21.934Z,18.9
2022-10-15T20:31:39.754Z,20.9
2022-10-15T20:33:57.311Z,19.3
2022-10-15T20:36:17.129Z,19.3
2022-10-15T20:38:32.943Z,19.3
2022-10-15T20:40:50.965Z,19.6
2022-10-15T20:43:08.704Z,19.3
2022-10-15T20:45:26.485Z,18.9
2022-10-15T20:47:44.369Z,19.4
2022-10-15T20:50:02.222Z,19.1
2022-10-15T20:52:19.771Z,18.9
2022-10-15T20:54:37.513Z,19.2
2022-10-15T20:56:55.375Z,18.9
2022-10-15T20:59:13.117Z,18.9
2022-10-15T21:01:30.966Z,19.3
2022-10-15T21:03:48.513Z,18.9
2022-10-15T21:06:06.267Z,19
2022-10-15T21:08:23.768Z,19
2022-10-15T21:10:41.804Z,19.1
2022-10-15T21:12:59.059Z,19.3
2022-10-15T21:15:16.799Z,19.2
2022-10-15T21:17:34.692Z,18.9
2022-10-15T21:22:10.236Z,19
2022-10-15T21:24:27.785Z,19.4
2022-10-15T21:26:45.659Z,19.1
2022-10-15T21:29:03.506Z,19.1
2022-10-15T21:33:38.928Z,18.9
2022-10-15T21:35:56.833Z,20.2
2022-10-15T21:38:14.363Z,19.5
2022-10-15T21:40:32.090Z,18.8
2022-10-15T21:42:49.812Z,18.9
2022-10-15T21:45:07.296Z,20.1
2022-10-15T21:47:25.480Z,19.2
2022-10-15T21:49:42.668Z,18.9
2022-10-15T21:52:00.699Z,19.1
2022-10-15T21:54:18.437Z,18.8
2022-10-15T21:56:36.915Z,18.9
2022-10-15T21:58:54.033Z,18.3
2022-10-15T22:01:13.489Z,18.9
2022-10-15T22:03:29.454Z,18.8
2022-10-15T22:05:47.058Z,18.8
2022-10-15T22:08:04.685Z,20.3
2022-10-15T22:10:22.389Z,18.9
2022-10-15T22:12:40.406Z,18.9
2022-10-15T22:14:57.993Z,19.1
2022-10-15T22:17:16.010Z,18.8
2022-10-15T22:19:35.724Z,18.6
2022-10-15T22:21:51.860Z,18.6
2022-10-15T22:24:09.248Z,19
2022-10-15T22:26:26.888Z,18.6
2022-10-15T22:28:44.932Z,18.9
2022-10-15T22:31:02.616Z,18.8
2022-10-15T22:33:20.192Z,18.9
2022-10-15T22:35:37.730Z,19.3
2022-10-15T22:37:55.774Z,18.6
2022-10-15T22:40:13.747Z,18.6
2022-10-15T22:42:31.155Z,20.2
2022-10-15T22:44:48.711Z,18.4
2022-10-15T22:47:06.201Z,18.9
2022-10-15T22:49:24.171Z,18.5
2022-10-15T22:51:41.879Z,18.3
2022-10-15T22:53:59.764Z,18.9
2022-10-15T22:58:35.291Z,19.3
2022-10-15T23:00:53.732Z,18.6
2022-10-15T23:03:11.030Z,18.6
2022-10-15T23:05:28.720Z,18.8
2022-10-15T23:07:46.578Z,18.8
2022-10-15T23:10:04.390Z,18.9
2022-10-15T23:12:21.843Z,18.6
2022-10-15T23:14:39.558Z,19.4
2022-10-15T23:16:57.050Z,19.1
2022-10-15T23:19:14.938Z,18.5
2022-10-15T23:21:32.714Z,18.9
2022-10-15T23:23:50.642Z,18.6
2022-10-15T23:26:08.265Z,18.8
2022-10-15T23:28:26.391Z,18.8
2022-10-15T23:30:46.914Z,18.5
2022-10-15T23:33:04.632Z,18.6
2022-10-15T23:35:22.490Z,18.4
2022-10-15T23:37:40.076Z,18.4
2022-10-15T23:39:57.774Z,18.5
2022-10-15T23:42:16.084Z,18.6
2022-10-15T23:44:33.005Z,18.8
2022-10-15T23:46:50.494Z,18.5
2022-10-15T23:49:07.951Z,20.1
2022-10-15T23:51:25.598Z,18.9
2022-10-15T23:56:00.741Z,18.6
2022-10-15T23:58:18.382Z,19.4
